sensor_id;sensor_type;location;lat;lon;timestamp;P1;durP1;ratioP1;P2;durP2;ratioP2
79464;SDS011;68932;47.410;8.232;2023-07-29T00:01:01;7.90;;;3.10;;
79464;SDS011;68932;47.410;8.232;2023-07-29T00:03:29;8.50;;;3.90;;
79464;SDS011;68932;47.410;8.232;2023-07-29T00:05:57;6.00;;;3.80;;
79464;SDS011;68932;47.410;8.232;2023-07-29T00:08:26;7.10;;;4.10;;
79464;SDS011;68932;47.410;8.232;2023-07-29T00:10:54;5.30;;;4.00;;
79464;SDS011;68932;47.410;8.232;2023-07-29T00:13:23;5.30;;;3.40;;
79464;SDS011;68932;47.410;8.232;2023-07-29T00:15:52;9.70;;;4.30;;
79464;SDS011;68932;47.410;8.232;2023-07-29T00:18:21;8.60;;;4.00;;
79464;SDS011;68932;47.410;8.232;2023-07-29T00:20:50;8.20;;;4.10;;
79464;SDS011;68932;47.410;8.232;2023-07-29T00:23:18;21.10;;;5.00;;
79464;SDS011;68932;47.410;8.232;2023-07-29T00:25:46;6.50;;;4.40;;
79464;SDS011;68932;47.410;8.232;2023-07-29T00:28:15;11.10;;;4.70;;
79464;SDS011;68932;47.410;8.232;2023-07-29T00:30:43;10.40;;;5.10;;
79464;SDS011;68932;47.410;8.232;2023-07-29T00:33:12;8.30;;;4.80;;
79464;SDS011;68932;47.410;8.232;2023-07-29T00:35:40;11.10;;;5.80;;
79464;SDS011;68932;47.410;8.232;2023-07-29T00:38:08;8.10;;;5.50;;
79464;SDS011;68932;47.410;8.232;2023-07-29T00:40:37;8.90;;;5.00;;
79464;SDS011;68932;47.410;8.232;2023-07-29T00:43:05;8.30;;;4.70;;
79464;SDS011;68932;47.410;8.232;2023-07-29T00:45:34;5.90;;;4.60;;
79464;SDS011;68932;47.410;8.232;2023-07-29T00:48:03;7.60;;;4.60;;
79464;SDS011;68932;47.410;8.232;2023-07-29T00:50:32;9.10;;;4.50;;
79464;SDS011;68932;47.410;8.232;2023-07-29T00:53:00;23.90;;;5.40;;
79464;SDS011;68932;47.410;8.232;2023-07-29T00:55:29;12.70;;;4.60;;
79464;SDS011;68932;47.410;8.232;2023-07-29T00:57:57;12.90;;;4.60;;
79464;SDS011;68932;47.410;8.232;2023-07-29T01:00:26;9.40;;;4.90;;
79464;SDS011;68932;47.410;8.232;2023-07-29T01:02:54;11.50;;;4.50;;
79464;SDS011;68932;47.410;8.232;2023-07-29T01:05:23;13.90;;;5.00;;
79464;SDS011;68932;47.410;8.232;2023-07-29T01:07:57;8.90;;;5.10;;
79464;SDS011;68932;47.410;8.232;2023-07-29T01:10:34;10.30;;;5.10;;
79464;SDS011;68932;47.410;8.232;2023-07-29T01:13:13;7.10;;;4.70;;
79464;SDS011;68932;47.410;8.232;2023-07-29T01:15:48;10.90;;;5.00;;
79464;SDS011;68932;47.410;8.232;2023-07-29T01:18:22;8.50;;;5.00;;
79464;SDS011;68932;47.410;8.232;2023-07-29T01:20:53;8.60;;;4.40;;
79464;SDS011;68932;47.410;8.232;2023-07-29T01:25:52;7.90;;;4.80;;
79464;SDS011;68932;47.410;8.232;2023-07-29T01:28:20;5.40;;;4.70;;
79464;SDS011;68932;47.410;8.232;2023-07-29T01:30:49;7.00;;;4.10;;
79464;SDS011;68932;47.410;8.232;2023-07-29T01:33:25;5.30;;;4.30;;
79464;SDS011;68932;47.410;8.232;2023-07-29T01:35:58;6.30;;;4.60;;
79464;SDS011;68932;47.410;8.232;2023-07-29T01:38:32;4.50;;;3.80;;
79464;SDS011;68932;47.410;8.232;2023-07-29T01:41:02;5.40;;;3.70;;
79464;SDS011;68932;47.410;8.232;2023-07-29T01:43:33;4.70;;;3.40;;
79464;SDS011;68932;47.410;8.232;2023-07-29T01:46:02;6.30;;;4.40;;
79464;SDS011;68932;47.410;8.232;2023-07-29T01:48:31;5.90;;;4.00;;
79464;SDS011;68932;47.410;8.232;2023-07-29T01:50:59;5.10;;;4.00;;
79464;SDS011;68932;47.410;8.232;2023-07-29T01:53:27;6.00;;;4.50;;
79464;SDS011;68932;47.410;8.232;2023-07-29T01:55:56;5.80;;;3.70;;
79464;SDS011;68932;47.410;8.232;2023-07-29T01:58:24;5.50;;;4.40;;
79464;SDS011;68932;47.410;8.232;2023-07-29T02:00:53;6.50;;;4.50;;
79464;SDS011;68932;47.410;8.232;2023-07-29T02:03:21;6.80;;;4.40;;
79464;SDS011;68932;47.410;8.232;2023-07-29T02:05:49;5.20;;;4.70;;
79464;SDS011;68932;47.410;8.232;2023-07-29T02:08:17;6.50;;;4.00;;
79464;SDS011;68932;47.410;8.232;2023-07-29T02:10:46;4.20;;;3.80;;
79464;SDS011;68932;47.410;8.232;2023-07-29T02:13:14;5.30;;;4.20;;
79464;SDS011;68932;47.410;8.232;2023-07-29T02:15:42;7.10;;;5.00;;
79464;SDS011;68932;47.410;8.232;2023-07-29T02:18:11;7.40;;;5.20;;
79464;SDS011;68932;47.410;8.232;2023-07-29T02:20:39;5.00;;;3.80;;
79464;SDS011;68932;47.410;8.232;2023-07-29T02:23:07;5.30;;;3.90;;
79464;SDS011;68932;47.410;8.232;2023-07-29T02:25:36;4.80;;;3.60;;
79464;SDS011;68932;47.410;8.232;2023-07-29T02:28:04;4.20;;;3.80;;
79464;SDS011;68932;47.410;8.232;2023-07-29T02:30:33;4.50;;;3.80;;
79464;SDS011;68932;47.410;8.232;2023-07-29T02:33:01;4.70;;;3.90;;
79464;SDS011;68932;47.410;8.232;2023-07-29T02:35:30;4.60;;;4.00;;
79464;SDS011;68932;47.410;8.232;2023-07-29T02:37:58;4.50;;;3.60;;
79464;SDS011;68932;47.410;8.232;2023-07-29T02:40:26;9.10;;;3.90;;
79464;SDS011;68932;47.410;8.232;2023-07-29T02:42:55;7.70;;;4.10;;
79464;SDS011;68932;47.410;8.232;2023-07-29T02:45:23;4.10;;;3.20;;
79464;SDS011;68932;47.410;8.232;2023-07-29T02:47:51;6.00;;;4.20;;
79464;SDS011;68932;47.410;8.232;2023-07-29T02:50:19;6.30;;;3.80;;
79464;SDS011;68932;47.410;8.232;2023-07-29T02:52:48;6.10;;;4.10;;
79464;SDS011;68932;47.410;8.232;2023-07-29T02:55:16;6.00;;;4.10;;
79464;SDS011;68932;47.410;8.232;2023-07-29T02:57:44;6.30;;;4.30;;
79464;SDS011;68932;47.410;8.232;2023-07-29T03:00:14;6.60;;;4.90;;
79464;SDS011;68932;47.410;8.232;2023-07-29T03:02:42;6.90;;;4.70;;
79464;SDS011;68932;47.410;8.232;2023-07-29T03:05:10;6.90;;;4.60;;
79464;SDS011;68932;47.410;8.232;2023-07-29T03:07:38;6.00;;;4.40;;
79464;SDS011;68932;47.410;8.232;2023-07-29T03:10:07;4.90;;;3.90;;
79464;SDS011;68932;47.410;8.232;2023-07-29T03:12:36;4.50;;;3.70;;
79464;SDS011;68932;47.410;8.232;2023-07-29T03:15:05;5.10;;;3.80;;
79464;SDS011;68932;47.410;8.232;2023-07-29T03:17:35;4.80;;;4.10;;
79464;SDS011;68932;47.410;8.232;2023-07-29T03:20:03;5.10;;;3.80;;
79464;SDS011;68932;47.410;8.232;2023-07-29T03:22:33;7.70;;;4.20;;
79464;SDS011;68932;47.410;8.232;2023-07-29T03:25:01;7.20;;;4.70;;
79464;SDS011;68932;47.410;8.232;2023-07-29T03:27:30;6.00;;;4.70;;
79464;SDS011;68932;47.410;8.232;2023-07-29T03:29:58;5.50;;;4.50;;
79464;SDS011;68932;47.410;8.232;2023-07-29T03:32:27;7.00;;;4.80;;
79464;SDS011;68932;47.410;8.232;2023-07-29T03:34:55;11.40;;;5.60;;
79464;SDS011;68932;47.410;8.232;2023-07-29T03:37:23;8.60;;;5.80;;
79464;SDS011;68932;47.410;8.232;2023-07-29T03:39:52;6.50;;;5.10;;
79464;SDS011;68932;47.410;8.232;2023-07-29T03:42:20;6.10;;;5.10;;
79464;SDS011;68932;47.410;8.232;2023-07-29T03:44:49;5.50;;;4.70;;
79464;SDS011;68932;47.410;8.232;2023-07-29T03:47:17;5.00;;;4.40;;
79464;SDS011;68932;47.410;8.232;2023-07-29T03:49:45;5.70;;;4.60;;
79464;SDS011;68932;47.410;8.232;2023-07-29T03:52:14;5.00;;;4.20;;
79464;SDS011;68932;47.410;8.232;2023-07-29T03:54:42;6.50;;;4.60;;
79464;SDS011;68932;47.410;8.232;2023-07-29T03:57:10;7.70;;;5.10;;
79464;SDS011;68932;47.410;8.232;2023-07-29T03:59:38;7.40;;;5.00;;
79464;SDS011;68932;47.410;8.232;2023-07-29T04:02:07;5.90;;;4.70;;
79464;SDS011;68932;47.410;8.232;2023-07-29T04:04:35;5.30;;;4.80;;
79464;SDS011;68932;47.410;8.232;2023-07-29T04:07:03;5.50;;;4.30;;
79464;SDS011;68932;47.410;8.232;2023-07-29T04:09:32;6.40;;;5.00;;
79464;SDS011;68932;47.410;8.232;2023-07-29T04:12:01;5.90;;;4.70;;
79464;SDS011;68932;47.410;8.232;2023-07-29T04:14:31;5.80;;;4.80;;
79464;SDS011;68932;47.410;8.232;2023-07-29T04:16:59;5.70;;;4.70;;
79464;SDS011;68932;47.410;8.232;2023-07-29T04:19:27;6.10;;;4.10;;
79464;SDS011;68932;47.410;8.232;2023-07-29T04:21:55;4.90;;;4.00;;
79464;SDS011;68932;47.410;8.232;2023-07-29T04:24:24;4.60;;;4.10;;
79464;SDS011;68932;47.410;8.232;2023-07-29T04:26:52;5.50;;;4.20;;
79464;SDS011;68932;47.410;8.232;2023-07-29T04:29:20;5.30;;;4.30;;
79464;SDS011;68932;47.410;8.232;2023-07-29T04:31:48;5.30;;;4.40;;
79464;SDS011;68932;47.410;8.232;2023-07-29T04:34:18;4.70;;;3.90;;
79464;SDS011;68932;47.410;8.232;2023-07-29T04:36:46;4.90;;;4.30;;
79464;SDS011;68932;47.410;8.232;2023-07-29T04:39:14;4.70;;;3.80;;
79464;SDS011;68932;47.410;8.232;2023-07-29T04:41:43;4.20;;;3.60;;
79464;SDS011;68932;47.410;8.232;2023-07-29T04:44:11;5.50;;;4.30;;
79464;SDS011;68932;47.410;8.232;2023-07-29T04:46:39;6.90;;;5.00;;
79464;SDS011;68932;47.410;8.232;2023-07-29T04:49:07;5.60;;;5.00;;
79464;SDS011;68932;47.410;8.232;2023-07-29T04:51:36;5.80;;;4.70;;
79464;SDS011;68932;47.410;8.232;2023-07-29T04:54:04;5.60;;;4.70;;
79464;SDS011;68932;47.410;8.232;2023-07-29T04:56:32;5.80;;;4.40;;
79464;SDS011;68932;47.410;8.232;2023-07-29T04:59:01;4.70;;;3.70;;
79464;SDS011;68932;47.410;8.232;2023-07-29T05:01:29;4.30;;;3.70;;
79464;SDS011;68932;47.410;8.232;2023-07-29T05:03:57;5.10;;;4.00;;
79464;SDS011;68932;47.410;8.232;2023-07-29T05:06:25;5.00;;;4.10;;
79464;SDS011;68932;47.410;8.232;2023-07-29T05:08:54;5.60;;;3.80;;
79464;SDS011;68932;47.410;8.232;2023-07-29T05:11:23;6.10;;;4.50;;
79464;SDS011;68932;47.410;8.232;2023-07-29T05:13:51;5.90;;;4.60;;
79464;SDS011;68932;47.410;8.232;2023-07-29T05:16:19;5.80;;;4.60;;
79464;SDS011;68932;47.410;8.232;2023-07-29T05:18:48;4.50;;;4.00;;
79464;SDS011;68932;47.410;8.232;2023-07-29T05:21:16;6.00;;;4.20;;
79464;SDS011;68932;47.410;8.232;2023-07-29T05:23:44;5.40;;;4.00;;
79464;SDS011;68932;47.410;8.232;2023-07-29T05:26:13;5.10;;;4.30;;
79464;SDS011;68932;47.410;8.232;2023-07-29T05:28:41;5.40;;;4.50;;
79464;SDS011;68932;47.410;8.232;2023-07-29T05:31:09;5.60;;;5.00;;
79464;SDS011;68932;47.410;8.232;2023-07-29T05:33:37;5.10;;;4.30;;
79464;SDS011;68932;47.410;8.232;2023-07-29T05:36:06;8.70;;;5.10;;
79464;SDS011;68932;47.410;8.232;2023-07-29T05:38:34;6.00;;;4.80;;
79464;SDS011;68932;47.410;8.232;2023-07-29T05:41:02;7.60;;;4.70;;
79464;SDS011;68932;47.410;8.232;2023-07-29T05:43:31;5.70;;;4.90;;
79464;SDS011;68932;47.410;8.232;2023-07-29T05:45:59;6.40;;;4.70;;
79464;SDS011;68932;47.410;8.232;2023-07-29T05:48:27;7.10;;;5.10;;
79464;SDS011;68932;47.410;8.232;2023-07-29T05:50:55;5.70;;;4.70;;
79464;SDS011;68932;47.410;8.232;2023-07-29T05:53:23;5.90;;;4.80;;
79464;SDS011;68932;47.410;8.232;2023-07-29T05:55:52;7.30;;;5.40;;
79464;SDS011;68932;47.410;8.232;2023-07-29T05:58:20;6.90;;;5.40;;
79464;SDS011;68932;47.410;8.232;2023-07-29T06:00:48;6.10;;;5.20;;
79464;SDS011;68932;47.410;8.232;2023-07-29T06:03:17;5.60;;;4.60;;
79464;SDS011;68932;47.410;8.232;2023-07-29T06:05:45;7.30;;;5.10;;
79464;SDS011;68932;47.410;8.232;2023-07-29T06:08:14;7.00;;;4.90;;
79464;SDS011;68932;47.410;8.232;2023-07-29T06:10:43;6.40;;;5.10;;
79464;SDS011;68932;47.410;8.232;2023-07-29T06:13:11;6.40;;;4.80;;
79464;SDS011;68932;47.410;8.232;2023-07-29T06:15:39;6.40;;;5.10;;
79464;SDS011;68932;47.410;8.232;2023-07-29T06:18:08;6.30;;;4.60;;
79464;SDS011;68932;47.410;8.232;2023-07-29T06:20:36;7.80;;;4.60;;
79464;SDS011;68932;47.410;8.232;2023-07-29T06:23:05;6.20;;;4.60;;
79464;SDS011;68932;47.410;8.232;2023-07-29T06:25:34;5.40;;;4.10;;
79464;SDS011;68932;47.410;8.232;2023-07-29T06:28:02;4.90;;;3.90;;
79464;SDS011;68932;47.410;8.232;2023-07-29T06:30:31;6.30;;;4.10;;
79464;SDS011;68932;47.410;8.232;2023-07-29T06:32:59;5.70;;;4.30;;
79464;SDS011;68932;47.410;8.232;2023-07-29T06:35:28;5.20;;;3.90;;
79464;SDS011;68932;47.410;8.232;2023-07-29T06:37:56;5.30;;;4.20;;
79464;SDS011;68932;47.410;8.232;2023-07-29T06:40:24;5.30;;;4.40;;
79464;SDS011;68932;47.410;8.232;2023-07-29T06:42:53;5.30;;;3.50;;
79464;SDS011;68932;47.410;8.232;2023-07-29T06:45:21;5.30;;;4.60;;
79464;SDS011;68932;47.410;8.232;2023-07-29T06:47:49;5.90;;;4.30;;
79464;SDS011;68932;47.410;8.232;2023-07-29T06:50:17;5.20;;;4.10;;
79464;SDS011;68932;47.410;8.232;2023-07-29T06:52:46;5.70;;;4.20;;
79464;SDS011;68932;47.410;8.232;2023-07-29T06:55:15;6.50;;;5.10;;
79464;SDS011;68932;47.410;8.232;2023-07-29T06:57:43;4.60;;;3.90;;
79464;SDS011;68932;47.410;8.232;2023-07-29T07:00:12;5.20;;;4.70;;
79464;SDS011;68932;47.410;8.232;2023-07-29T07:02:40;4.80;;;3.80;;
79464;SDS011;68932;47.410;8.232;2023-07-29T07:05:09;6.00;;;4.50;;
79464;SDS011;68932;47.410;8.232;2023-07-29T07:07:37;4.40;;;3.30;;
79464;SDS011;68932;47.410;8.232;2023-07-29T07:10:06;7.70;;;3.70;;
79464;SDS011;68932;47.410;8.232;2023-07-29T07:12:35;5.40;;;4.30;;
79464;SDS011;68932;47.410;8.232;2023-07-29T07:15:04;4.90;;;4.00;;
79464;SDS011;68932;47.410;8.232;2023-07-29T07:17:33;5.10;;;4.10;;
79464;SDS011;68932;47.410;8.232;2023-07-29T07:20:02;4.60;;;4.10;;
79464;SDS011;68932;47.410;8.232;2023-07-29T07:22:31;6.10;;;4.30;;
79464;SDS011;68932;47.410;8.232;2023-07-29T07:24:59;5.10;;;4.10;;
79464;SDS011;68932;47.410;8.232;2023-07-29T07:27:28;5.00;;;4.10;;
79464;SDS011;68932;47.410;8.232;2023-07-29T07:29:56;5.90;;;4.40;;
79464;SDS011;68932;47.410;8.232;2023-07-29T07:32:24;5.60;;;4.00;;
79464;SDS011;68932;47.410;8.232;2023-07-29T07:34:53;5.10;;;4.00;;
79464;SDS011;68932;47.410;8.232;2023-07-29T07:37:21;7.10;;;4.30;;
79464;SDS011;68932;47.410;8.232;2023-07-29T07:39:49;6.30;;;4.70;;
79464;SDS011;68932;47.410;8.232;2023-07-29T07:42:17;6.60;;;5.20;;
79464;SDS011;68932;47.410;8.232;2023-07-29T07:44:46;6.00;;;4.60;;
79464;SDS011;68932;47.410;8.232;2023-07-29T07:47:14;5.60;;;4.70;;
79464;SDS011;68932;47.410;8.232;2023-07-29T07:49:42;5.30;;;4.50;;
79464;SDS011;68932;47.410;8.232;2023-07-29T07:52:11;6.50;;;4.60;;
79464;SDS011;68932;47.410;8.232;2023-07-29T07:54:39;5.80;;;4.70;;
79464;SDS011;68932;47.410;8.232;2023-07-29T07:57:07;5.30;;;4.40;;
79464;SDS011;68932;47.410;8.232;2023-07-29T07:59:35;6.20;;;4.40;;
79464;SDS011;68932;47.410;8.232;2023-07-29T08:02:04;6.30;;;3.80;;
79464;SDS011;68932;47.410;8.232;2023-07-29T08:04:33;4.90;;;3.90;;
79464;SDS011;68932;47.410;8.232;2023-07-29T08:07:01;5.20;;;4.00;;
79464;SDS011;68932;47.410;8.232;2023-07-29T08:09:30;5.80;;;4.50;;
79464;SDS011;68932;47.410;8.232;2023-07-29T08:11:58;5.90;;;4.20;;
79464;SDS011;68932;47.410;8.232;2023-07-29T08:14:26;6.20;;;4.60;;
79464;SDS011;68932;47.410;8.232;2023-07-29T08:16:55;5.50;;;4.50;;
79464;SDS011;68932;47.410;8.232;2023-07-29T08:19:23;6.70;;;4.20;;
79464;SDS011;68932;47.410;8.232;2023-07-29T08:21:51;7.50;;;5.20;;
79464;SDS011;68932;47.410;8.232;2023-07-29T08:24:20;6.10;;;4.80;;
79464;SDS011;68932;47.410;8.232;2023-07-29T08:26:48;6.10;;;5.10;;
79464;SDS011;68932;47.410;8.232;2023-07-29T08:29:16;6.70;;;4.60;;
79464;SDS011;68932;47.410;8.232;2023-07-29T08:31:44;6.60;;;4.90;;
79464;SDS011;68932;47.410;8.232;2023-07-29T08:34:13;5.50;;;4.70;;
79464;SDS011;68932;47.410;8.232;2023-07-29T08:36:41;5.50;;;4.50;;
79464;SDS011;68932;47.410;8.232;2023-07-29T08:39:09;7.60;;;5.50;;
79464;SDS011;68932;47.410;8.232;2023-07-29T08:41:40;5.80;;;4.80;;
79464;SDS011;68932;47.410;8.232;2023-07-29T08:44:15;5.90;;;4.90;;
79464;SDS011;68932;47.410;8.232;2023-07-29T08:46:47;6.70;;;4.90;;
79464;SDS011;68932;47.410;8.232;2023-07-29T08:49:16;7.20;;;4.40;;
79464;SDS011;68932;47.410;8.232;2023-07-29T08:51:46;5.40;;;4.60;;
79464;SDS011;68932;47.410;8.232;2023-07-29T08:54:15;5.00;;;4.10;;
79464;SDS011;68932;47.410;8.232;2023-07-29T08:56:43;4.70;;;4.20;;
79464;SDS011;68932;47.410;8.232;2023-07-29T08:59:12;4.60;;;3.70;;
79464;SDS011;68932;47.410;8.232;2023-07-29T09:01:42;5.10;;;3.80;;
79464;SDS011;68932;47.410;8.232;2023-07-29T09:04:11;6.20;;;4.10;;
79464;SDS011;68932;47.410;8.232;2023-07-29T09:06:40;4.60;;;3.60;;
79464;SDS011;68932;47.410;8.232;2023-07-29T09:09:10;5.90;;;3.80;;
79464;SDS011;68932;47.410;8.232;2023-07-29T09:11:38;6.50;;;4.30;;
79464;SDS011;68932;47.410;8.232;2023-07-29T09:14:07;4.30;;;3.60;;
79464;SDS011;68932;47.410;8.232;2023-07-29T09:16:36;7.30;;;3.90;;
79464;SDS011;68932;47.410;8.232;2023-07-29T09:19:05;6.50;;;3.80;;
79464;SDS011;68932;47.410;8.232;2023-07-29T09:21:33;5.50;;;3.70;;
79464;SDS011;68932;47.410;8.232;2023-07-29T09:24:05;5.80;;;3.70;;
79464;SDS011;68932;47.410;8.232;2023-07-29T09:26:34;5.00;;;3.30;;
79464;SDS011;68932;47.410;8.232;2023-07-29T09:29:03;4.00;;;2.90;;
79464;SDS011;68932;47.410;8.232;2023-07-29T09:31:31;3.60;;;2.90;;
79464;SDS011;68932;47.410;8.232;2023-07-29T09:34:00;7.10;;;3.80;;
79464;SDS011;68932;47.410;8.232;2023-07-29T09:36:31;3.50;;;2.60;;
79464;SDS011;68932;47.410;8.232;2023-07-29T09:38:59;5.00;;;3.40;;
79464;SDS011;68932;47.410;8.232;2023-07-29T09:41:29;4.30;;;3.50;;
79464;SDS011;68932;47.410;8.232;2023-07-29T09:43:57;3.60;;;2.80;;
79464;SDS011;68932;47.410;8.232;2023-07-29T09:46:32;4.00;;;2.90;;
79464;SDS011;68932;47.410;8.232;2023-07-29T09:49:03;3.30;;;2.60;;
79464;SDS011;68932;47.410;8.232;2023-07-29T09:51:32;4.10;;;2.90;;
79464;SDS011;68932;47.410;8.232;2023-07-29T09:54:05;4.10;;;2.90;;
79464;SDS011;68932;47.410;8.232;2023-07-29T09:56:33;3.80;;;2.90;;
79464;SDS011;68932;47.410;8.232;2023-07-29T09:59:08;4.20;;;3.10;;
79464;SDS011;68932;47.410;8.232;2023-07-29T10:01:36;3.50;;;2.60;;
79464;SDS011;68932;47.410;8.232;2023-07-29T10:04:05;3.50;;;2.80;;
79464;SDS011;68932;47.410;8.232;2023-07-29T10:06:34;3.60;;;2.70;;
79464;SDS011;68932;47.410;8.232;2023-07-29T10:09:03;4.00;;;2.40;;
79464;SDS011;68932;47.410;8.232;2023-07-29T10:11:33;3.40;;;2.70;;
79464;SDS011;68932;47.410;8.232;2023-07-29T10:14:02;3.80;;;3.30;;
79464;SDS011;68932;47.410;8.232;2023-07-29T10:16:30;4.40;;;2.90;;
79464;SDS011;68932;47.410;8.232;2023-07-29T10:19:00;3.20;;;2.90;;
79464;SDS011;68932;47.410;8.232;2023-07-29T10:21:30;4.40;;;3.80;;
79464;SDS011;68932;47.410;8.232;2023-07-29T10:24:00;4.60;;;3.20;;
79464;SDS011;68932;47.410;8.232;2023-07-29T10:26:32;6.10;;;3.40;;
79464;SDS011;68932;47.410;8.232;2023-07-29T10:29:04;3.60;;;2.70;;
79464;SDS011;68932;47.410;8.232;2023-07-29T10:31:37;4.50;;;3.10;;
79464;SDS011;68932;47.410;8.232;2023-07-29T10:34:08;3.70;;;3.10;;
79464;SDS011;68932;47.410;8.232;2023-07-29T10:36:37;6.10;;;3.30;;
79464;SDS011;68932;47.410;8.232;2023-07-29T10:39:07;5.30;;;3.40;;
79464;SDS011;68932;47.410;8.232;2023-07-29T10:47:16;4.60;;;3.70;;
79464;SDS011;68932;47.410;8.232;2023-07-29T10:49:46;4.90;;;3.50;;
79464;SDS011;68932;47.410;8.232;2023-07-29T10:52:16;4.20;;;3.50;;
79464;SDS011;68932;47.410;8.232;2023-07-29T10:54:54;5.90;;;3.80;;
79464;SDS011;68932;47.410;8.232;2023-07-29T10:57:30;3.90;;;3.30;;
79464;SDS011;68932;47.410;8.232;2023-07-29T10:59:59;4.60;;;3.60;;
79464;SDS011;68932;47.410;8.232;2023-07-29T11:02:30;7.20;;;4.00;;
79464;SDS011;68932;47.410;8.232;2023-07-29T11:04:59;5.50;;;4.10;;
79464;SDS011;68932;47.410;8.232;2023-07-29T11:07:34;6.90;;;4.80;;
79464;SDS011;68932;47.410;8.232;2023-07-29T11:10:11;6.50;;;4.20;;
79464;SDS011;68932;47.410;8.232;2023-07-29T11:12:41;6.40;;;4.50;;
79464;SDS011;68932;47.410;8.232;2023-07-29T11:15:15;4.60;;;2.70;;
79464;SDS011;68932;47.410;8.232;2023-07-29T11:17:46;4.70;;;2.30;;
79464;SDS011;68932;47.410;8.232;2023-07-29T11:20:16;4.60;;;3.30;;
79464;SDS011;68932;47.410;8.232;2023-07-29T11:22:45;6.20;;;3.50;;
79464;SDS011;68932;47.410;8.232;2023-07-29T11:25:15;4.50;;;3.50;;
79464;SDS011;68932;47.410;8.232;2023-07-29T11:27:44;4.30;;;3.40;;
79464;SDS011;68932;47.410;8.232;2023-07-29T11:30:13;4.10;;;3.20;;
79464;SDS011;68932;47.410;8.232;2023-07-29T11:32:42;4.90;;;3.70;;
79464;SDS011;68932;47.410;8.232;2023-07-29T11:35:13;4.20;;;3.00;;
79464;SDS011;68932;47.410;8.232;2023-07-29T11:37:43;6.60;;;3.90;;
79464;SDS011;68932;47.410;8.232;2023-07-29T11:40:14;6.10;;;3.30;;
79464;SDS011;68932;47.410;8.232;2023-07-29T11:42:43;6.60;;;3.10;;
79464;SDS011;68932;47.410;8.232;2023-07-29T11:45:13;4.70;;;3.90;;
79464;SDS011;68932;47.410;8.232;2023-07-29T11:47:42;5.10;;;3.50;;
79464;SDS011;68932;47.410;8.232;2023-07-29T11:50:11;4.40;;;3.40;;
79464;SDS011;68932;47.410;8.232;2023-07-29T11:52:41;5.30;;;3.10;;
79464;SDS011;68932;47.410;8.232;2023-07-29T11:55:11;3.80;;;2.90;;
79464;SDS011;68932;47.410;8.232;2023-07-29T11:57:40;3.50;;;3.10;;
79464;SDS011;68932;47.410;8.232;2023-07-29T12:00:10;4.70;;;2.90;;
79464;SDS011;68932;47.410;8.232;2023-07-29T12:02:39;4.30;;;3.20;;
79464;SDS011;68932;47.410;8.232;2023-07-29T12:05:09;3.70;;;3.20;;
79464;SDS011;68932;47.410;8.232;2023-07-29T12:07:39;4.80;;;3.30;;
79464;SDS011;68932;47.410;8.232;2023-07-29T12:10:09;5.70;;;4.00;;
79464;SDS011;68932;47.410;8.232;2023-07-29T12:12:39;6.60;;;3.60;;
79464;SDS011;68932;47.410;8.232;2023-07-29T12:15:12;6.20;;;3.30;;
79464;SDS011;68932;47.410;8.232;2023-07-29T12:17:48;4.50;;;3.10;;
79464;SDS011;68932;47.410;8.232;2023-07-29T12:20:19;5.30;;;2.90;;
79464;SDS011;68932;47.410;8.232;2023-07-29T12:22:52;2.80;;;1.90;;
79464;SDS011;68932;47.410;8.232;2023-07-29T12:25:21;5.90;;;2.80;;
79464;SDS011;68932;47.410;8.232;2023-07-29T12:27:50;7.20;;;3.30;;
79464;SDS011;68932;47.410;8.232;2023-07-29T12:30:21;3.40;;;2.40;;
79464;SDS011;68932;47.410;8.232;2023-07-29T12:32:49;3.00;;;2.00;;
79464;SDS011;68932;47.410;8.232;2023-07-29T12:35:18;3.80;;;2.60;;
79464;SDS011;68932;47.410;8.232;2023-07-29T12:37:46;3.90;;;2.50;;
79464;SDS011;68932;47.410;8.232;2023-07-29T12:40:24;4.60;;;2.60;;
79464;SDS011;68932;47.410;8.232;2023-07-29T12:42:53;3.10;;;2.00;;
79464;SDS011;68932;47.410;8.232;2023-07-29T12:45:22;3.40;;;2.10;;
79464;SDS011;68932;47.410;8.232;2023-07-29T12:47:50;2.70;;;2.20;;
79464;SDS011;68932;47.410;8.232;2023-07-29T12:50:19;4.10;;;2.50;;
79464;SDS011;68932;47.410;8.232;2023-07-29T12:52:47;3.90;;;2.40;;
79464;SDS011;68932;47.410;8.232;2023-07-29T12:55:15;4.00;;;2.30;;
79464;SDS011;68932;47.410;8.232;2023-07-29T12:57:43;4.60;;;2.20;;
79464;SDS011;68932;47.410;8.232;2023-07-29T13:00:12;3.70;;;2.20;;
79464;SDS011;68932;47.410;8.232;2023-07-29T13:02:41;4.10;;;2.20;;
79464;SDS011;68932;47.410;8.232;2023-07-29T13:05:10;3.30;;;2.00;;
79464;SDS011;68932;47.410;8.232;2023-07-29T13:07:39;2.80;;;2.00;;
79464;SDS011;68932;47.410;8.232;2023-07-29T13:10:09;3.70;;;2.40;;
79464;SDS011;68932;47.410;8.232;2023-07-29T13:12:38;3.50;;;2.40;;
79464;SDS011;68932;47.410;8.232;2023-07-29T13:15:07;2.50;;;1.60;;
79464;SDS011;68932;47.410;8.232;2023-07-29T13:17:36;4.10;;;2.00;;
79464;SDS011;68932;47.410;8.232;2023-07-29T13:20:06;3.20;;;2.40;;
79464;SDS011;68932;47.410;8.232;2023-07-29T13:22:35;2.50;;;1.90;;
79464;SDS011;68932;47.410;8.232;2023-07-29T13:25:04;4.20;;;1.90;;
79464;SDS011;68932;47.410;8.232;2023-07-29T13:27:32;2.80;;;2.00;;
79464;SDS011;68932;47.410;8.232;2023-07-29T13:30:01;4.90;;;2.00;;
79464;SDS011;68932;47.410;8.232;2023-07-29T13:32:29;3.00;;;1.90;;
79464;SDS011;68932;47.410;8.232;2023-07-29T13:34:58;2.80;;;1.70;;
79464;SDS011;68932;47.410;8.232;2023-07-29T13:37:26;3.00;;;1.90;;
79464;SDS011;68932;47.410;8.232;2023-07-29T13:39:54;3.70;;;1.80;;
79464;SDS011;68932;47.410;8.232;2023-07-29T13:42:22;3.10;;;2.10;;
79464;SDS011;68932;47.410;8.232;2023-07-29T13:44:50;3.70;;;2.10;;
79464;SDS011;68932;47.410;8.232;2023-07-29T13:47:19;3.20;;;1.90;;
79464;SDS011;68932;47.410;8.232;2023-07-29T13:49:47;2.50;;;1.50;;
79464;SDS011;68932;47.410;8.232;2023-07-29T13:52:15;4.00;;;2.20;;
79464;SDS011;68932;47.410;8.232;2023-07-29T13:54:43;3.40;;;2.20;;
79464;SDS011;68932;47.410;8.232;2023-07-29T13:57:12;6.00;;;2.00;;
79464;SDS011;68932;47.410;8.232;2023-07-29T13:59:40;3.60;;;2.00;;
79464;SDS011;68932;47.410;8.232;2023-07-29T14:02:08;3.10;;;2.00;;
79464;SDS011;68932;47.410;8.232;2023-07-29T14:04:36;4.10;;;2.00;;
79464;SDS011;68932;47.410;8.232;2023-07-29T14:07:05;3.10;;;2.20;;
79464;SDS011;68932;47.410;8.232;2023-07-29T14:09:33;2.30;;;1.50;;
79464;SDS011;68932;47.410;8.232;2023-07-29T14:12:01;2.90;;;1.90;;
79464;SDS011;68932;47.410;8.232;2023-07-29T14:14:31;2.70;;;1.90;;
79464;SDS011;68932;47.410;8.232;2023-07-29T14:16:59;3.50;;;2.80;;
79464;SDS011;68932;47.410;8.232;2023-07-29T14:19:27;3.70;;;2.00;;
79464;SDS011;68932;47.410;8.232;2023-07-29T14:21:55;4.20;;;2.40;;
79464;SDS011;68932;47.410;8.232;2023-07-29T14:24:24;5.10;;;2.90;;
79464;SDS011;68932;47.410;8.232;2023-07-29T14:26:52;3.70;;;2.10;;
79464;SDS011;68932;47.410;8.232;2023-07-29T14:29:20;2.90;;;2.20;;
79464;SDS011;68932;47.410;8.232;2023-07-29T14:31:49;2.80;;;2.10;;
79464;SDS011;68932;47.410;8.232;2023-07-29T14:34:17;4.50;;;2.80;;
79464;SDS011;68932;47.410;8.232;2023-07-29T14:36:45;3.40;;;2.30;;
79464;SDS011;68932;47.410;8.232;2023-07-29T14:39:13;4.10;;;2.50;;
79464;SDS011;68932;47.410;8.232;2023-07-29T14:41:42;2.70;;;2.20;;
79464;SDS011;68932;47.410;8.232;2023-07-29T14:44:10;3.50;;;2.20;;
79464;SDS011;68932;47.410;8.232;2023-07-29T14:46:39;4.20;;;2.80;;
79464;SDS011;68932;47.410;8.232;2023-07-29T14:49:07;3.30;;;2.50;;
79464;SDS011;68932;47.410;8.232;2023-07-29T14:51:35;3.50;;;2.50;;
79464;SDS011;68932;47.410;8.232;2023-07-29T14:54:04;4.20;;;2.30;;
79464;SDS011;68932;47.410;8.232;2023-07-29T14:56:32;3.10;;;2.20;;
79464;SDS011;68932;47.410;8.232;2023-07-29T14:59:00;4.10;;;2.60;;
79464;SDS011;68932;47.410;8.232;2023-07-29T15:01:28;4.30;;;2.40;;
79464;SDS011;68932;47.410;8.232;2023-07-29T15:03:57;4.80;;;2.80;;
79464;SDS011;68932;47.410;8.232;2023-07-29T15:06:25;4.30;;;2.30;;